createdAt,value
2022-10-23T00:01:23.214Z,4.32
2022-10-23T00:04:01.893Z,3.92
2022-10-23T00:06:30.555Z,4.10
2022-10-23T00:08:57.630Z,3.83
2022-10-23T00:11:27.839Z,4.35
2022-10-23T00:13:56.779Z,4.50
2022-10-23T00:16:23.572Z,3.70
2022-10-23T00:18:50.299Z,3.72
2022-10-23T00:21:18.306Z,3.50
2022-10-23T00:23:45.924Z,3.90
2022-10-23T00:26:16.194Z,3.90
2022-10-23T00:28:44.294Z,4.30
2022-10-23T00:31:11.604Z,4.05
2022-10-23T00:33:38.732Z,4.15
2022-10-23T00:36:07.857Z,3.63
2022-10-23T00:38:35.225Z,3.83
2022-10-23T00:41:02.620Z,4.25
2022-10-23T00:43:31.311Z,3.95
2022-10-23T00:45:58.816Z,4.20
2022-10-23T00:48:29.300Z,3.78
2022-10-23T00:50:56.538Z,3.97
2022-10-23T00:53:23.907Z,3.90
2022-10-23T00:55:53.959Z,4.07
2022-10-23T00:58:22.000Z,3.72
2022-10-23T01:00:56.400Z,3.70
2022-10-23T01:03:27.478Z,5.35
2022-10-23T01:05:57.312Z,5.00
2022-10-23T01:08:48.638Z,4.90
2022-10-23T01:11:25.555Z,4.03
2022-10-23T01:14:20.930Z,3.92
2022-10-23T01:16:47.681Z,5.38
2022-10-23T01:19:20.268Z,5.20
2022-10-23T01:21:55.410Z,5.35
2022-10-23T01:24:50.897Z,4.63
2022-10-23T01:27:25.314Z,4.53
2022-10-23T01:30:15.641Z,4.03
2022-10-23T01:32:45.564Z,4.15
2022-10-23T01:35:32.858Z,3.92
2022-10-23T01:38:22.100Z,3.83
2022-10-23T01:40:55.424Z,3.65
2022-10-23T01:43:30.365Z,3.72
2022-10-23T01:46:02.057Z,3.33
2022-10-23T01:48:30.832Z,3.78
2022-10-23T01:51:05.243Z,3.58
2022-10-23T01:53:37.709Z,3.60
2022-10-23T01:56:08.725Z,3.83
2022-10-23T01:58:37.386Z,3.80
2022-10-23T02:01:07.004Z,3.83
2022-10-23T02:03:35.942Z,3.58
2022-10-23T02:06:02.842Z,3.50
2022-10-23T02:08:29.634Z,3.17
2022-10-23T02:11:16.042Z,2.97
2022-10-23T02:13:59.732Z,3.30
2022-10-23T02:16:51.857Z,3.40
2022-10-23T02:19:31.226Z,3.05
2022-10-23T02:22:26.617Z,2.83
2022-10-23T02:24:59.663Z,3.00
2022-10-23T02:27:35.218Z,3.28
2022-10-23T02:30:10.503Z,3.42
2022-10-23T02:32:45.915Z,3.38
2022-10-23T02:35:13.308Z,3.55
2022-10-23T02:37:40.409Z,3.00
2022-10-23T02:40:09.090Z,2.90
2022-10-23T02:42:54.421Z,2.60
2022-10-23T02:48:25.771Z,2.75
2022-10-23T02:51:01.546Z,2.42
2022-10-23T02:53:37.797Z,2.63
2022-10-23T02:56:20.868Z,2.63
2022-10-23T02:59:09.293Z,2.70
2022-10-23T03:01:44.222Z,2.90
2022-10-23T03:04:13.144Z,2.63
2022-10-23T03:06:39.966Z,2.60
2022-10-23T03:09:08.947Z,2.90
2022-10-23T03:11:35.910Z,2.70
2022-10-23T03:14:02.716Z,2.75
2022-10-23T03:16:29.477Z,2.70
2022-10-23T03:18:56.240Z,3.05
2022-10-23T03:21:23.011Z,3.00
2022-10-23T03:23:49.722Z,3.00
2022-10-23T03:26:16.445Z,2.70
2022-10-23T03:28:43.246Z,2.83
2022-10-23T03:31:10.043Z,2.78
2022-10-23T03:33:36.764Z,2.70
2022-10-23T03:36:03.690Z,2.78
2022-10-23T03:38:30.437Z,2.85
2022-10-23T03:40:57.290Z,3.30
2022-10-23T03:43:24.060Z,2.85
2022-10-23T03:45:51.997Z,3.30
2022-10-23T03:48:18.727Z,2.90
2022-10-23T03:50:45.456Z,2.97
2022-10-23T03:53:12.217Z,3.05
2022-10-23T03:55:38.922Z,3.30
2022-10-23T03:58:05.681Z,3.10
2022-10-23T04:00:32.398Z,3.25
2022-10-23T04:02:59.169Z,2.72
2022-10-23T04:05:25.980Z,3.13
2022-10-23T04:07:52.846Z,3.17
2022-10-23T04:10:19.680Z,3.00
2022-10-23T04:12:46.497Z,3.03
2022-10-23T04:15:13.241Z,3.17
2022-10-23T04:17:40.050Z,2.90
2022-10-23T04:20:06.893Z,3.20
2022-10-23T04:22:33.662Z,3.22
2022-10-23T04:25:00.459Z,3.10
2022-10-23T04:27:27.225Z,2.92
2022-10-23T04:29:56.781Z,2.88
2022-10-23T04:32:25.881Z,3.15
2022-10-23T04:34:52.641Z,3.13
2022-10-23T04:37:19.694Z,2.60
2022-10-23T04:39:46.485Z,3.30
2022-10-23T04:42:13.226Z,3.22
2022-10-23T04:44:40.163Z,3.85
2022-10-23T04:47:06.845Z,3.13
2022-10-23T04:49:33.624Z,3.55
2022-10-23T04:52:00.433Z,2.92
2022-10-23T04:54:27.220Z,3.13
2022-10-23T04:56:53.936Z,3.13
2022-10-23T04:59:20.755Z,3.22
2022-10-23T05:01:47.562Z,3.53
2022-10-23T05:04:14.391Z,3.38
2022-10-23T05:06:41.122Z,3.03
2022-10-23T05:09:07.942Z,3.42
2022-10-23T05:11:34.692Z,2.97
2022-10-23T05:14:01.530Z,3.47
2022-10-23T05:16:55.778Z,3.50
2022-10-23T05:19:27.773Z,3.22
2022-10-23T05:21:56.200Z,3.28
2022-10-23T05:24:26.753Z,3.72
2022-10-23T05:26:54.087Z,3.22
2022-10-23T05:29:21.133Z,3.25
2022-10-23T05:31:50.984Z,3.30
2022-10-23T05:34:21.145Z,3.03
2022-10-23T05:36:48.489Z,3.22
2022-10-23T05:39:16.014Z,2.97
2022-10-23T05:41:42.701Z,3.08
2022-10-23T05:44:09.442Z,3.22
2022-10-23T05:46:43.855Z,3.40
2022-10-23T05:49:10.624Z,3.30
2022-10-23T05:51:39.032Z,3.30
2022-10-23T05:54:08.274Z,3.28
2022-10-23T05:56:36.570Z,3.38
2022-10-23T05:59:03.965Z,3.15
2022-10-23T06:01:30.853Z,3.25
2022-10-23T06:04:00.006Z,3.30
2022-10-23T06:06:26.834Z,3.10
2022-10-23T06:08:54.274Z,3.83
2022-10-23T06:11:21.292Z,3.45
2022-10-23T06:13:50.916Z,3.33
2022-10-23T06:16:21.608Z,3.63
2022-10-23T06:18:48.742Z,3.40
2022-10-23T06:21:16.194Z,3.30
2022-10-23T06:23:44.389Z,3.38
2022-10-23T06:26:14.182Z,3.20
2022-10-23T06:28:41.486Z,3.45
2022-10-23T06:31:09.848Z,3.22
2022-10-23T06:33:36.910Z,3.50
2022-10-23T06:36:05.427Z,3.38
2022-10-23T06:38:37.407Z,3.85
2022-10-23T06:41:04.979Z,3.53
2022-10-23T06:43:31.828Z,4.03
2022-10-23T06:46:05.133Z,3.65
2022-10-23T06:48:32.584Z,3.80
2022-10-23T06:51:03.890Z,3.78
2022-10-23T06:53:30.617Z,3.80
2022-10-23T06:56:01.204Z,4.03
2022-10-23T06:58:28.159Z,3.65
2022-10-23T07:00:55.330Z,4.20
2022-10-23T07:03:22.433Z,4.13
2022-10-23T07:05:49.158Z,3.70
2022-10-23T07:08:16.267Z,3.75
2022-10-23T07:10:43.847Z,4.07
2022-10-23T07:13:11.432Z,3.47
2022-10-23T07:15:39.213Z,3.72
2022-10-23T07:18:06.699Z,3.90
2022-10-23T07:20:33.629Z,4.05
2022-10-23T07:23:00.417Z,4.30
2022-10-23T07:25:27.594Z,3.88
2022-10-23T07:27:56.358Z,4.28
2022-10-23T07:30:23.172Z,4.10
2022-10-23T07:32:49.958Z,4.18
2022-10-23T07:35:17.211Z,4.03
2022-10-23T07:37:44.274Z,4.25
2022-10-23T07:40:11.621Z,3.97
2022-10-23T07:42:38.941Z,3.65
2022-10-23T07:45:07.492Z,3.90
2022-10-23T07:47:34.596Z,3.55
2022-10-23T07:50:01.583Z,3.85
2022-10-23T07:52:32.022Z,4.05
2022-10-23T07:55:01.886Z,4.43
2022-10-23T07:57:28.675Z,4.10
2022-10-23T07:59:55.400Z,4.10
2022-10-23T08:02:22.274Z,4.65
2022-10-23T08:04:50.398Z,3.90
2022-10-23T08:07:17.400Z,4.40
2022-10-23T08:09:44.243Z,3.95
2022-10-23T08:12:11.077Z,3.85
2022-10-23T08:14:38.010Z,3.63
2022-10-23T08:17:05.356Z,3.85
2022-10-23T08:19:32.541Z,3.75
2022-10-23T08:21:59.296Z,4.00
2022-10-23T08:24:26.075Z,4.43
2022-10-23T08:26:52.853Z,4.03
2022-10-23T08:29:19.617Z,3.92
2022-10-23T08:31:46.847Z,4.30
2022-10-23T08:34:13.910Z,3.78
2022-10-23T08:36:40.851Z,4.00
2022-10-23T08:39:07.734Z,3.95
2022-10-23T08:41:40.136Z,3.47
2022-10-23T08:44:32.693Z,3.83
2022-10-23T08:47:00.202Z,3.85
2022-10-23T08:49:33.709Z,4.30
2022-10-23T08:52:08.079Z,4.15
2022-10-23T08:55:09.056Z,3.88
2022-10-23T08:57:43.791Z,4.38
2022-10-23T09:00:16.139Z,3.92
2022-10-23T09:02:46.826Z,3.88
2022-10-23T09:05:17.253Z,4.50
2022-10-23T09:08:21.499Z,3.75
2022-10-23T09:11:15.704Z,4.45
2022-10-23T09:13:51.528Z,4.30
2022-10-23T09:16:49.034Z,4.05
2022-10-23T09:19:26.309Z,4.30
2022-10-23T09:21:54.423Z,4.72
2022-10-23T09:24:23.491Z,5.30
2022-10-23T09:26:53.541Z,4.03
2022-10-23T09:29:30.254Z,4.13
2022-10-23T09:32:01.675Z,3.88
2022-10-23T09:34:30.561Z,4.47
2022-10-23T09:37:30.604Z,4.25
2022-10-23T09:40:33.939Z,4.13
2022-10-23T09:43:14.157Z,4.13
2022-10-23T09:45:42.565Z,4.63
2022-10-23T09:48:16.008Z,4.00
2022-10-23T09:50:52.175Z,4.60
2022-10-23T09:53:31.730Z,4.47
2022-10-23T09:56:05.358Z,4.40
2022-10-23T09:58:39.859Z,5.53
2022-10-23T10:01:06.815Z,4.72
2022-10-23T10:03:33.663Z,4.80
2022-10-23T10:06:03.185Z,5.03
2022-10-23T10:08:46.548Z,4.18
2022-10-23T10:11:19.973Z,5.28
2022-10-23T10:14:23.292Z,4.43
2022-10-23T10:17:10.010Z,4.35
2022-10-23T10:19:51.789Z,4.43
2022-10-23T10:22:33.480Z,4.20
2022-10-23T10:25:30.833Z,4.20
2022-10-23T10:28:00.471Z,4.55
2022-10-23T10:30:37.048Z,4.68
2022-10-23T10:33:06.497Z,4.40
2022-10-23T10:35:44.876Z,4.10
2022-10-23T10:38:50.758Z,5.07
2022-10-23T10:41:49.698Z,4.35
2022-10-23T10:44:55.330Z,5.38
2022-10-23T10:47:33.417Z,4.82
2022-10-23T10:50:03.129Z,4.60
2022-10-23T10:52:49.352Z,5.78
2022-10-23T10:55:21.494Z,4.55
2022-10-23T10:57:59.951Z,4.45
2022-10-23T11:00:29.831Z,5.07
2022-10-23T11:03:02.744Z,4.47
2022-10-23T11:05:38.564Z,4.65
2022-10-23T11:08:44.603Z,4.57
2022-10-23T11:11:37.549Z,4.30
2022-10-23T11:14:04.440Z,4.38
2022-10-23T11:16:37.790Z,4.93
2022-10-23T11:19:14.112Z,4.43
2022-10-23T11:21:53.423Z,4.65
2022-10-23T11:24:43.157Z,4.40
2022-10-23T11:27:30.668Z,4.22
2022-10-23T11:32:55.288Z,4.90
2022-10-23T11:35:44.252Z,4.32
2022-10-23T11:38:13.664Z,4.72
2022-10-23T11:43:49.926Z,4.50
2022-10-23T11:46:25.911Z,4.00
2022-10-23T11:48:54.581Z,4.38
2022-10-23T11:51:40.997Z,4.13
2022-10-23T11:54:10.852Z,4.50
2022-10-23T11:57:13.721Z,4.35
2022-10-23T11:59:54.407Z,4.53
2022-10-23T12:02:39.548Z,5.18
2022-10-23T12:07:39.294Z,4.30
2022-10-23T12:10:07.752Z,4.07
2022-10-23T12:12:40.817Z,4.55
2022-10-23T12:15:14.549Z,4.00
2022-10-23T12:17:43.377Z,4.60
2022-10-23T12:20:13.178Z,4.78
2022-10-23T12:22:45.963Z,4.72
2022-10-23T12:25:16.715Z,4.95
2022-10-23T12:28:06.455Z,4.60
2022-10-23T12:30:45.083Z,4.30
2022-10-23T12:33:37.858Z,5.22
2022-10-23T12:36:36.812Z,4.78
2022-10-23T12:39:03.720Z,4.53
2022-10-23T12:41:33.760Z,4.25
2022-10-23T12:44:04.174Z,4.75
2022-10-23T12:46:41.989Z,5.20
2022-10-23T12:49:18.204Z,5.63
2022-10-23T12:51:45.408Z,4.25
2022-10-23T12:54:18.872Z,5.10
2022-10-23T12:56:46.587Z,5.00
2022-10-23T12:59:26.988Z,4.55
2022-10-23T13:01:54.991Z,4.53
2022-10-23T13:04:33.422Z,4.88
2022-10-23T13:07:02.944Z,4.45
2022-10-23T13:09:29.641Z,4.68
2022-10-23T13:11:57.548Z,5.03
2022-10-23T13:14:39.329Z,5.03
2022-10-23T13:17:10.938Z,5.28
2022-10-23T13:19:38.089Z,4.93
2022-10-23T13:22:20.450Z,4.78
2022-10-23T13:24:47.976Z,5.35
2022-10-23T13:27:33.665Z,5.22
2022-10-23T13:30:00.537Z,5.43
2022-10-23T13:32:30.239Z,4.72
2022-10-23T13:35:10.194Z,5.05
2022-10-23T13:37:48.339Z,5.18
2022-10-23T13:40:33.130Z,4.85
2022-10-23T13:43:00.170Z,4.88
2022-10-23T13:45:27.626Z,4.60
2022-10-23T13:47:54.634Z,4.43
2022-10-23T13:50:21.451Z,5.05
2022-10-23T13:52:48.229Z,5.30
2022-10-23T13:55:23.686Z,4.70
2022-10-23T13:57:50.487Z,5.00
2022-10-23T14:00:18.401Z,5.60
2022-10-23T14:02:45.595Z,5.72
2022-10-23T14:05:12.632Z,4.90
2022-10-23T14:07:39.355Z,5.43
2022-10-23T14:10:06.446Z,5.07
2022-10-23T14:12:43.214Z,5.35
2022-10-23T14:15:11.348Z,4.53
2022-10-23T14:17:38.376Z,4.65
2022-10-23T14:20:06.310Z,4.70
2022-10-23T14:22:33.397Z,6.35
2022-10-23T14:25:00.147Z,5.30
2022-10-23T14:27:27.008Z,5.13
2022-10-23T14:29:53.729Z,4.88
2022-10-23T14:32:20.658Z,5.10
2022-10-23T14:34:52.825Z,5.50
2022-10-23T14:37:19.989Z,5.75
2022-10-23T14:39:50.012Z,4.85
2022-10-23T14:42:17.397Z,4.80
2022-10-23T14:44:44.776Z,5.07
2022-10-23T14:47:11.845Z,4.78
2022-10-23T14:49:40.190Z,4.65
2022-10-23T14:52:07.600Z,5.28
2022-10-23T14:54:36.435Z,5.65
2022-10-23T14:57:03.843Z,5.00
2022-10-23T14:59:30.944Z,4.63
2022-10-23T15:01:57.794Z,4.82
2022-10-23T15:04:24.701Z,5.07
2022-10-23T15:06:51.576Z,4.68
2022-10-23T15:09:19.950Z,5.10
2022-10-23T15:11:47.422Z,4.72
2022-10-23T15:14:14.194Z,4.80
2022-10-23T15:16:43.664Z,4.80
2022-10-23T15:19:17.062Z,5.07
2022-10-23T15:21:46.364Z,5.20
2022-10-23T15:24:13.400Z,4.78
2022-10-23T15:26:42.809Z,4.82
2022-10-23T15:29:11.131Z,4.40
2022-10-23T15:31:37.833Z,4.85
2022-10-23T15:34:05.736Z,4.90
2022-10-23T15:36:32.604Z,4.75
2022-10-23T15:39:00.235Z,4.72
2022-10-23T15:41:31.984Z,4.80
2022-10-23T15:44:00.805Z,4.55
2022-10-23T15:46:28.203Z,5.00
2022-10-23T15:48:55.002Z,4.85
2022-10-23T15:51:21.859Z,4.82
2022-10-23T15:53:48.788Z,4.65
2022-10-23T15:56:15.836Z,4.95
2022-10-23T15:58:42.770Z,5.32
2022-10-23T16:01:09.750Z,4.97
2022-10-23T16:03:37.991Z,5.55
2022-10-23T16:06:06.926Z,4.88
2022-10-23T16:08:33.804Z,4.60
2022-10-23T16:11:00.796Z,5.00
2022-10-23T16:13:28.033Z,4.75
2022-10-23T16:15:55.100Z,5.18
2022-10-23T16:18:23.120Z,5.32
2022-10-23T16:20:55.104Z,5.60
2022-10-23T16:23:22.408Z,5.68
2022-10-23T16:25:49.986Z,5.13
2022-10-23T16:28:17.043Z,5.05
2022-10-23T16:30:43.918Z,5.90
2022-10-23T16:33:10.773Z,5.50
2022-10-23T16:35:37.974Z,5.95
2022-10-23T16:38:05.228Z,5.68
2022-10-23T16:40:32.024Z,5.20
2022-10-23T16:42:59.065Z,5.45
2022-10-23T16:45:25.757Z,5.55
2022-10-23T16:47:52.525Z,4.93
2022-10-23T16:50:19.482Z,6.10
2022-10-23T16:52:46.955Z,5.63
2022-10-23T16:55:15.120Z,5.22
2022-10-23T16:57:42.562Z,5.43
2022-10-23T17:00:09.749Z,6.15
2022-10-23T17:02:37.856Z,6.15
2022-10-23T17:05:05.125Z,5.53
2022-10-23T17:07:32.662Z,5.65
2022-10-23T17:09:59.427Z,6.10
2022-10-23T17:12:26.158Z,6.43
2022-10-23T17:14:52.942Z,6.38
2022-10-23T17:17:19.686Z,6.43
2022-10-23T17:19:46.951Z,8.27
2022-10-23T17:22:14.769Z,7.50
2022-10-23T17:24:45.100Z,7.43
2022-10-23T17:27:14.398Z,8.75
2022-10-23T17:29:41.169Z,8.52
2022-10-23T17:32:08.061Z,8.35
2022-10-23T17:34:35.039Z,8.23
2022-10-23T17:37:01.837Z,7.78
2022-10-23T17:39:29.497Z,8.20
2022-10-23T17:41:56.875Z,7.70
2022-10-23T17:44:23.866Z,7.13
2022-10-23T17:46:53.550Z,7.18
2022-10-23T17:49:21.183Z,8.48
2022-10-23T17:51:57.405Z,10.00
2022-10-23T17:54:25.701Z,8.70
2022-10-23T17:56:52.468Z,8.52
2022-10-23T17:59:19.770Z,7.85
2022-10-23T18:01:48.162Z,8.40
2022-10-23T18:04:17.678Z,7.70
2022-10-23T18:06:50.514Z,6.90
2022-10-23T18:09:17.518Z,8.10
2022-10-23T18:11:48.206Z,7.57
2022-10-23T18:14:17.283Z,7.25
2022-10-23T18:16:45.667Z,7.65
2022-10-23T18:19:13.740Z,7.28
2022-10-23T18:21:40.707Z,7.47
2022-10-23T18:24:07.842Z,7.60
2022-10-23T18:26:35.430Z,6.80
2022-10-23T18:29:04.931Z,7.22
2022-10-23T18:31:31.822Z,7.53
2022-10-23T18:34:04.206Z,6.78
2022-10-23T18:36:33.158Z,7.28
2022-10-23T18:38:59.937Z,6.80
2022-10-23T18:41:28.060Z,7.05
2022-10-23T18:43:55.190Z,6.65
2022-10-23T18:46:22.394Z,7.22
2022-10-23T18:48:50.837Z,7.07
2022-10-23T18:51:22.461Z,6.78
2022-10-23T18:53:49.597Z,6.65
2022-10-23T18:56:22.904Z,7.45
2022-10-23T18:59:01.860Z,7.05
2022-10-23T19:01:29.877Z,7.20
2022-10-23T19:03:58.578Z,7.35
2022-10-23T19:06:25.811Z,7.88
2022-10-23T19:08:52.769Z,7.15
2022-10-23T19:11:21.659Z,7.18
2022-10-23T19:13:48.537Z,7.35
2022-10-23T19:16:23.880Z,7.38
2022-10-23T19:18:55.384Z,7.18
2022-10-23T19:21:31.078Z,7.22
2022-10-23T19:24:04.803Z,7.50
2022-10-23T19:26:34.330Z,7.15
2022-10-23T19:29:01.500Z,7.57
2022-10-23T19:31:28.371Z,7.88
2022-10-23T19:33:55.101Z,7.00
2022-10-23T19:36:23.408Z,7.60
2022-10-23T19:38:50.748Z,7.72
2022-10-23T19:41:18.769Z,7.88
2022-10-23T19:43:45.634Z,7.72
2022-10-23T19:46:12.601Z,8.23
2022-10-23T19:48:44.544Z,8.32
2022-10-23T19:51:12.904Z,8.23
2022-10-23T19:53:41.246Z,7.75
2022-10-23T19:56:10.005Z,7.85
2022-10-23T19:58:36.861Z,8.18
2022-10-23T20:01:08.258Z,7.75
2022-10-23T20:03:35.146Z,7.63
2022-10-23T20:06:01.884Z,7.55
2022-10-23T20:08:32.605Z,7.35
2022-10-23T20:11:01.958Z,7.90
2022-10-23T20:13:28.966Z,7.45
2022-10-23T20:15:55.857Z,7.40
2022-10-23T20:18:22.712Z,7.20
2022-10-23T20:20:49.741Z,7.15
2022-10-23T20:23:16.489Z,7.35
2022-10-23T20:25:43.489Z,7.25
2022-10-23T20:28:12.893Z,7.45
2022-10-23T20:30:42.554Z,7.28
2022-10-23T20:33:09.472Z,6.68
2022-10-23T20:35:43.185Z,7.13
2022-10-23T20:38:10.352Z,7.53
2022-10-23T20:40:37.172Z,6.70
2022-10-23T20:43:04.005Z,6.82
2022-10-23T20:45:30.794Z,6.53
2022-10-23T20:47:57.630Z,6.10
2022-10-23T20:50:24.403Z,6.95
2022-10-23T20:52:51.355Z,6.50
2022-10-23T20:55:18.806Z,6.75
2022-10-23T20:57:45.690Z,6.43
2022-10-23T21:00:13.014Z,6.35
2022-10-23T21:02:39.884Z,6.30
2022-10-23T21:05:07.247Z,6.30
2022-10-23T21:07:34.140Z,6.00
2022-10-23T21:10:02.067Z,6.15
2022-10-23T21:12:29.010Z,7.13
2022-10-23T21:14:55.711Z,6.72
2022-10-23T21:17:22.511Z,6.47
2022-10-23T21:19:49.408Z,7.38
2022-10-23T21:22:16.161Z,6.57
2022-10-23T21:24:42.947Z,6.82
2022-10-23T21:27:09.753Z,7.00
2022-10-23T21:29:36.515Z,7.18
2022-10-23T21:32:03.310Z,6.50
2022-10-23T21:34:30.564Z,6.30
2022-10-23T21:37:14.216Z,6.40
2022-10-23T21:39:43.397Z,6.57
2022-10-23T21:42:11.656Z,6.38
2022-10-23T21:44:38.379Z,6.57
2022-10-23T21:47:05.165Z,6.35
2022-10-23T21:49:32.351Z,6.68
2022-10-23T21:51:59.101Z,6.82
2022-10-23T21:54:25.906Z,7.13
2022-10-23T21:56:55.630Z,6.68
2022-10-23T21:59:27.661Z,6.75
2022-10-23T22:01:56.981Z,6.35
2022-10-23T22:04:23.893Z,6.15
2022-10-23T22:06:50.645Z,7.10
2022-10-23T22:09:20.053Z,6.60
2022-10-23T22:11:49.155Z,6.80
2022-10-23T22:14:16.005Z,7.18
2022-10-23T22:16:42.994Z,6.65
2022-10-23T22:19:15.831Z,7.15
2022-10-23T22:21:43.121Z,6.72
2022-10-23T22:24:10.775Z,7.22
2022-10-23T22:26:44.013Z,7.10
2022-10-23T22:29:13.951Z,6.60
2022-10-23T22:31:44.214Z,6.53
2022-10-23T22:34:25.266Z,7.03
2022-10-23T22:37:00.905Z,7.13
2022-10-23T22:39:27.763Z,6.47
2022-10-23T22:41:54.526Z,6.82
2022-10-23T22:44:21.407Z,7.53
2022-10-23T22:46:48.161Z,5.93
2022-10-23T22:49:14.953Z,6.93
2022-10-23T22:51:41.751Z,6.53
2022-10-23T22:54:08.844Z,6.07
2022-10-23T22:56:35.798Z,6.95
2022-10-23T22:59:03.615Z,5.97
2022-10-23T23:01:50.959Z,5.78
2022-10-23T23:07:10.370Z,5.68
2022-10-23T23:09:42.373Z,6.03
2022-10-23T23:12:11.374Z,5.88
2022-10-23T23:14:38.222Z,5.85
2022-10-23T23:17:06.913Z,5.80
2022-10-23T23:19:33.786Z,5.75
2022-10-23T23:22:01.113Z,5.85
2022-10-23T23:24:28.052Z,5.68
2022-10-23T23:26:54.897Z,6.30
2022-10-23T23:29:21.853Z,5.80
2022-10-23T23:31:48.645Z,6.32
2022-10-23T23:34:15.385Z,5.88
2022-10-23T23:36:42.090Z,6.13
2022-10-23T23:39:09.952Z,6.03
2022-10-23T23:41:37.495Z,5.95
2022-10-23T23:44:04.573Z,6.25
2022-10-23T23:46:31.315Z,6.45
2022-10-23T23:48:58.043Z,6.18
2022-10-23T23:51:25.624Z,5.78
2022-10-23T23:53:52.995Z,5.55
2022-10-23T23:56:20.847Z,5.95
2022-10-23T23:58:47.649Z,6.22
